Tiempo atmosférico en la estación meteorológica de Cuenca, Cuenca (945 m.)



Fecha
DESCASC
Temp. máxima en grados centígrados (hora)
DESCASC
Temp. mínima en grados centígrados (hora)
DESCASC
Temp. media en grados centígrados
DESCASC
Racha de viento máxima en m/sg (hora)
DESCASC
Velocidad máxima media en intervalos de 10 minutos(hora)
DESCASC
Precipitaciones diarias en mm
DESCASC
Precipitaciones de 00:00 a 06:00 en mm
DESCASC
Precipitaciones de 06:00 a 12:00 en mm
DESCASC
Precipitaciones de 12:00 a 18:00 en mm
DESCASC
Precipitaciones de 18:00 a 24:00 en mm
DESCASC
28-02-2021 10.5 (15:50) 4.2 (04:30) 7.3 11.67 (11:00) 5.56 (14:40) 0 0 0 0 0
27-02-2021 20.1 (16:10) 1.2 (08:20) 10.7 5.28 (17:00) 2.5 (17:20) 0 0 0 0 0
26-02-2021 16.2 (16:30) 4.4 (06:40) 10.3 7.22 (12:50) 3.61 (13:00) 0 0 0 0 0
25-02-2021 14.7 (16:10) 3.8 (00:00) 9.2 8.89 (09:30) 3.89 (09:30) 0 0 0 0 0
24-02-2021 13.8 (15:30) 4.8 (00:00) 9.3 10 (14:10) 5.28 (16:20) 0 0 0 0 0
23-02-2021 13.6 (16:00) 2.5 (00:00) 8.1 6.39 (17:10) 3.33 (13:20) 0 0 0 0 0
22-02-2021 7.4 (17:00) 3.7 (00:00) 5.6 7.22 (14:00) 2.78 (15:10) 5.6 5 0.4 0 0.2
21-02-2021 10.9 (14:10) 5.7 (00:00) 8.3 15.28 (02:30) 7.78 (00:30) 3 0 0 0 3
20-02-2021 19.2 (15:40) 6.2 (00:00) 12.7 15.83 (23:10) 8.06 (23:59) 0 0 0 0 0
19-02-2021 18.4 (16:20) 0.9 (00:00) 9.6 8.33 (15:00) 3.89 (15:00) 0 0 0 0 0
18-02-2021 17.8 (15:20) 1.3 (00:00) 9.5 7.78 (17:20) 3.89 (14:50) 0 0 0 0 0
17-02-2021 18.9 (15:50) 1.6 (00:00) 10.2 5.83 (17:00) 2.5 (17:00) 0 0 0 0 0
16-02-2021 17.8 (16:20) 0.1 (00:00) 8.9 4.72 (16:40) 2.5 (16:40) 0.4 0 0.2 0.2 0
15-02-2021 12.7 (16:30) 5.1 (00:00) 8.9 7.5 (17:40) 4.17 (18:20) 0 0 0 0 0
14-02-2021 15.7 (16:10) 0.7 (00:00) 8.2 8.33 (21:50) 4.44 (21:30) 0 0 0 0 0
13-02-2021 14.4 (16:00) 2.4 (00:00) 8.4 8.06 (15:20) 3.33 (15:20) 0 0 0 0 0
12-02-2021 12.6 (15:00) 6.8 (00:00) 9.7 14.17 (09:10) 5.28 (09:20) 3 0.2 2.6 0.2 0
11-02-2021 11.6 (17:00) 3 (00:00) 7.3 2.78 (17:50) 1.39 (22:30) 0.2 0 0 0.2 0
10-02-2021 12.3 (14:40) 3.8 (00:00) 8.1 13.89 (07:50) 5.56 (06:50) 4.8 2.2 2.6 0 0
09-02-2021 7.9 (16:40) 3.7 (00:00) 5.8 13.61 (17:00) 6.39 (15:40) 11.4 1.2 0.6 8.4 1.2
08-02-2021 8.7 (17:10) 4 (00:00) 6.3 11.39 (18:10) 5.28 (17:00) 14.2 2.8 8.8 0.4 2.2
07-02-2021 8.4 (12:50) 2.4 (00:00) 5.4 8.89 (14:20) 3.89 (14:30) 2.2 0.8 0 0 1.4
06-02-2021 9 (13:30) 5.6 (00:00) 7.3 7.5 (03:20) 4.17 (03:00) 10.6 4.8 0.6 1.8 3.4
05-02-2021 15.3 (16:10) 6.4 (00:00) 10.9 13.61 (09:00) 7.5 (09:00) 0 0 0 0 0
04-02-2021 17.3 (16:10) 5.4 (00:00) 11.3 9.72 (13:40) 4.72 (12:50) 0 0 0 0 0
03-02-2021 13.5 (14:20) 7.2 (00:00) 10.3 5.56 (12:10) 2.78 (12:40) 0 0 0 0 0
02-02-2021 11.8 (16:00) 6.7 (00:00) 9.3 6.11 (15:00) 3.06 (14:40) 0.2 0 0 0.2 0
01-02-2021 15.1 (16:10) 7 (00:00) 11.1 10.28 (04:20) 4.44 (04:20) 0 0 0 0 0
31-01-2021 10.6 (21:20) 5 (00:00) 7.8 10.83 (23:00) 5 (00:20) 1.2 0 0.2 1 0

Gráficas

Temp. máximas Temp. mínimas Temp. medias Precipitaciones Rachas de viento máximas Velocidades máximas media en intervalos de 10 minutos

Datos horarios

Fecha y hora oficial Temperatura (ºC) Velocidad del viento (km/h) Dirección del viento Racha (km/h) Dirección de racha Precipitación (mm) Presión (hPa) Tendencia (hPa) Humedad (%)
2021-03-01 23:00:00 7.4 7 Sudeste 17 Sudeste 0 913.7 0.9 80
2021-03-01 22:00:00 7.7 8 Sudeste 18 Sudeste 0 913.6 1.3 78
2021-03-01 21:00:00 7.9 6 Sudeste 18 Sur 0 913.2 2.2 76
2021-03-01 20:00:00 8.1 8 Sudeste 17 Sudeste 0 912.8 1.9 75
2021-03-01 19:00:00 8.7 6 Sudeste 18 Este 0 912.3 1.6 71
2021-03-01 18:00:00 9.5 7 Este 39 Sudeste 0 911 0.2 68
2021-03-01 17:00:00 10.1 16 Sudeste 36 Sudeste 0 910.9 -0.2 66
2021-03-01 16:00:00 10.1 19 Sudeste 42 Sudeste 0 910.7 -1.3 67
2021-03-01 15:00:00 11.8 9 Sur -- -- -- 910.8 -1.9 60
2021-03-01 14:00:00 9.2 10 Sudeste 34 Sudeste 0 911.1 -- 71
2021-03-01 13:00:00 8.7 15 Sudeste 32 Sudeste 0 912 -- 75
2021-03-01 12:00:00 7.7 13 Sudeste 35 Sudeste 0 912.7 -- 79
2021-03-01 11:00:00 8.2 15 Sudeste 31 Sudeste 0 912.2 -- 75
2021-03-01 10:00:00 7.6 13 Sudeste 35 Sudeste 0 912 -- 79
2021-03-01 09:00:00 7.1 19 Sudeste 37 Sudeste 0 911.5 -- 76
2021-03-01 08:00:00 7 5 Sur 25 Sudeste 0 911.2 -- 75
2021-03-01 07:00:00 6.8 5 Norte 23 Este 0 910.6 -- 75
2021-03-01 06:00:00 6.4 6 Sudeste 30 Sur 0 911.2 -- 75
2021-03-01 05:00:00 6.3 10 Sudeste 26 Sudeste 0 911.4 -- 73
2021-03-01 04:00:00 6.1 7 Sudeste 33 Sudeste 0 911.6 -- 75
2021-03-01 03:00:00 6 15 Sudeste 34 Sudeste 0 912.1 -- 75
2021-03-01 02:00:00 5.8 11 Sudeste 31 Sudeste 0 912 -- 75
2021-03-01 01:00:00 5.6 14 Sudeste 31 Sudeste 0 911.9 -- 75
2021-03-01 00:00:00 5.7 14 Sudeste 33 Sudeste 0 912.1 -- 75
2021-02-28 23:00:00 5.8 15 Sudeste 27 Sur 0 911.9 -- 75
2021-02-28 22:00:00 5.8 7 Sudeste 30 Sur 0 911.7 -- 80
2021-02-28 21:00:00 6.7 14 Sudeste 35 Sudeste 0 911.3 -- 76
2021-02-28 20:00:00 7.4 15 Sudeste 35 Sudeste 0 911.3 -- 75
2021-02-28 19:00:00 8.1 16 Sudeste 36 Sudeste 0 911 -- 74
2021-02-28 18:00:00 9.1 16 Sudeste 36 Sudeste 0 910.8 -- 66
2021-02-28 17:00:00 9.4 18 Sudeste 38 Sudeste 0 910.9 -- 68
2021-02-28 16:00:00 10 16 Sudeste 35 Sur 0 910.8 -- 64
2021-02-28 15:00:00 8.6 18 Sudeste 39 Sudeste 0 911.3 -- 73
2021-02-28 14:00:00 9.7 15 Sudeste 38 Sudeste 0 911.5 -- 68
2021-02-28 13:00:00 9.7 16 Sur 36 Sudeste 0 912 -- 64
2021-02-28 12:00:00 8.9 17 Sudeste 40 Sudeste 0 912.4 -- 64
2021-02-28 11:00:00 8 17 Sudeste 42 Sudeste 0 912.5 -- 66
2021-02-28 10:00:00 7.2 14 Sudeste 33 Sudeste 0 912.4 -- 71
2021-02-28 09:00:00 5.8 13 Sudeste 29 Sudeste 0 912 -- 75
2021-02-28 08:00:00 5 13 Sudeste 30 Sudeste 0 911.8 -- 75
2021-02-28 07:00:00 5.4 13 Sudeste 34 Sudeste 0 911.6 -- 76
2021-02-28 06:00:00 5.3 9 Sudeste 21 Sur 0 911.8 -- 83
2021-02-28 05:00:00 4.3 3 Sudeste 14 Sudeste 0 911.8 -- 87
2021-02-28 04:00:00 4.3 2 Este 6 Sur 0 911.8 -- 83
2021-02-28 03:00:00 4.8 3 Norte 5 Nordeste 0 912.2 -- 80
2021-02-28 02:00:00 5.5 0 Calma 4 Nordeste 0 912.4 -- 74
2021-02-28 01:00:00 6.2 2 Sur 5 Norte 0 912.3 -- 71
2021-02-28 00:00:00 7.1 0 Calma 4 Sur 0 912.4 -- 67
2021-02-27 23:00:00 8.3 2 Noroeste 6 Oeste 0 912.6 -- 61
2021-02-27 22:00:00 9.8 2 Este 13 Sudeste 0 912.4 -- 52
2021-02-27 21:00:00 11.3 5 Sudeste 9 Sudeste 0 912.2 -- 49
2021-02-27 20:00:00 12.9 4 Sur 12 Sudoeste 0 912.3 -- 49
2021-02-27 19:00:00 14.8 4 Sudoeste 16 Sudoeste 0 912.4 -- 45
2021-02-27 18:00:00 17.3 7 Sudoeste 18 Oeste 0 912 -- 34
2021-02-27 17:00:00 19.2 8 Sudoeste 19 Sudoeste 0 912 -- 29
2021-02-27 16:00:00 19.7 4 Sudeste 14 Sudoeste 0 912.4 -- 23
2021-02-27 15:00:00 19.3 5 Noroeste 14 Oeste 0 912.9 -- 26
2021-02-27 14:00:00 18.4 4 Sudoeste 10 Oeste 0 913.8 -- 30
2021-02-27 13:00:00 16.4 4 Sudoeste 10 Sudoeste 0 914.8 -- 32
2021-02-27 12:00:00 14 3 Sudoeste 6 Sudoeste 0 915.4 -- 44
2021-02-27 11:00:00 10.1 3 Oeste 9 Noroeste 0 915.8 -- 62
2021-02-27 10:00:00 6.1 2 Norte 6 Noroeste 0 915.9 -- 70
2021-02-27 09:00:00 1.7 2 Sudoeste 4 Sudoeste 0 915.9 -- 86
2021-02-27 08:00:00 1.4 0 Calma 3 Sudoeste 0 915.6 -- 89
2021-02-27 07:00:00 2 0 Calma 5 Sudeste 0 915.6 -- 88
2021-02-27 06:00:00 1.9 3 Sur 6 Sur 0 915.6 -- 88
2021-02-27 05:00:00 2.4 0 Calma 5 Este 0 915.7 -- 87
2021-02-27 04:00:00 3 0 Calma 4 Sur 0 916.1 -- 86
2021-02-27 03:00:00 4.1 0 Calma 3 Este 0 916.8 -- 84
2021-02-27 02:00:00 4.6 2 Norte 5 Nordeste 0 917.1 -- 85
2021-02-27 01:00:00 5.4 0 Calma 4 Nordeste 0 917.3 -- 82
2021-02-27 00:00:00 6.2 0 Calma 6 Norte 0 917.6 -- 78
2021-02-26 23:00:00 7.2 0 Calma 4 Norte 0 917.9 -- 75
2021-02-26 22:00:00 8.4 0 Calma 6 Norte 0 917.7 -- 69
2021-02-26 21:00:00 9.7 0 Calma 6 Norte 0 917.5 -- 65
2021-02-26 20:00:00 11.2 0 Calma 6 Norte 0 917.5 -- 59
2021-02-26 19:00:00 13.1 2 Norte 5 Noroeste 0 917.2 -- 62
2021-02-26 18:00:00 14.6 4 Oeste 12 Sur 0 917 -- 54
2021-02-26 17:00:00 15.8 5 Sudoeste 14 Sur 0 916.9 -- 35
2021-02-26 16:00:00 16.1 7 Sur 19 Sur 0 917.1 -- 31
2021-02-26 15:00:00 15.6 9 Sudeste 23 Sur 0 917.5 -- 31
2021-02-26 14:00:00 15.8 8 Sudeste 23 Sudeste 0 918 -- 36
2021-02-26 13:00:00 15.1 13 Sudeste 26 Sudeste 0 918.5 -- 38
2021-02-26 12:00:00 13.7 10 Sur 23 Sur 0 919 -- 48
2021-02-26 11:00:00 11.4 7 Sur 14 Sur 0 918.9 -- 58
2021-02-26 10:00:00 7.9 2 Noroeste 5 Sur 0 918.7 -- 79
2021-02-26 09:00:00 5 2 Noroeste 6 Noroeste 0 918.4 -- 87
2021-02-26 08:00:00 4.5 2 Norte 8 Oeste 0 917.9 -- 90
2021-02-26 07:00:00 4.9 3 Este 8 Este 0 917.8 -- 89
2021-02-26 06:00:00 4.9 0 Calma 5 Norte 0 917.7 -- 89
2021-02-26 05:00:00 5.2 3 Norte 6 Norte 0 918 -- 88
2021-02-26 04:00:00 5.4 2 Sudoeste 6 Oeste 0 918.3 -- 89
2021-02-26 03:00:00 5.9 3 Noroeste 6 Noroeste 0 918.8 -- 86
2021-02-26 02:00:00 6.5 0 Calma 6 Oeste 0 918.9 -- 85
2021-02-26 01:00:00 7 0 Calma 4 Sudeste 0 919 -- 84
2021-02-26 00:00:00 7.7 0 Calma 5 Sudeste 0 919.2 -- 80
2021-02-25 23:00:00 8 0 Calma 5 Sudeste 0 919.1 -- 80
2021-02-25 22:00:00 8.5 3 Sudoeste 5 Norte 0 918.9 -- 77
2021-02-25 21:00:00 9.2 3 Oeste 6 Sudeste 0 918.4 -- 72
2021-02-25 20:00:00 10.3 2 Norte 7 Sudeste 0 918 -- 67
2021-02-25 19:00:00 11.7 2 Este 14 Sudeste 0 917.7 -- 61
2021-02-25 18:00:00 13 7 Sudeste 17 Sur 0 917.5 -- 56
2021-02-25 17:00:00 14.2 9 Sudeste 23 Sudeste 0 917.4 -- 52
2021-02-25 16:00:00 14.5 11 Sudeste 28 Sudeste 0 917.5 -- 54
2021-02-25 15:00:00 13.5 11 Sudeste 27 Sur 0 917.8 -- 59
2021-02-25 14:00:00 12.2 13 Sudeste 27 Sur 0 918.3 -- 60
2021-02-25 13:00:00 11.4 13 Sur 26 Sudeste 0 918.8 -- 63
2021-02-25 12:00:00 10 12 Sudeste 25 Sudeste 0 919.2 -- 69
2021-02-25 11:00:00 8.7 11 Sur 27 Sudeste 0 919.5 -- 73
2021-02-25 10:00:00 7 13 Sudeste 32 Sudeste 0 919.4 -- 78
2021-02-25 09:00:00 5.3 6 Sudeste 14 Sur 0 919.1 -- 87
2021-02-25 08:00:00 4 3 Norte 7 Sudeste 0 918.1 -- 90
2021-02-25 07:00:00 4 4 Sudeste 9 Sudeste 0 918.4 -- 90
2021-02-25 06:00:00 4.9 4 Sudeste 21 Sur 0 918.6 -- 90
2021-02-25 05:00:00 5.1 6 Sur 19 Sur 0 918.6 -- 93
2021-02-25 04:00:00 5.1 4 Sur 12 Sur 0 918.9 -- 89
2021-02-25 03:00:00 5.4 3 Sur 8 Sudeste 0 919.1 -- 88
2021-02-25 02:00:00 5.4 2 Nordeste 8 Norte 0 919.5 -- 89
2021-02-25 01:00:00 5.3 2 Este 8 Este 0 920 -- 88
2021-02-25 00:00:00 6.1 3 Sudeste 18 Sudeste 0 920 -- 84
2021-02-24 23:00:00 7 12 Sudeste 24 Sudeste 0 920 -- 80
2021-02-24 22:00:00 7.7 16 Sudeste 26 Sudeste 0 920 -- 78
2021-02-24 21:00:00 7.5 5 Sudeste 18 Sur 0 920 -- 78
2021-02-24 20:00:00 8.8 8 Sur 26 Sudeste 0 920.1 -- 73
2021-02-24 19:00:00 10.2 10 Sudeste 27 Sudeste 0 919.9 -- 66
2021-02-24 18:00:00 12.2 13 Sudeste 29 Sudeste 0 919.8 -- 59
2021-02-24 17:00:00 13.3 14 Sur 31 Sudeste 0 920 -- 56
2021-02-24 16:00:00 13.4 17 Sudeste 33 Sur 0 920.4 -- 57
2021-02-24 15:00:00 13 14 Sudeste 36 Sudeste 0 920.8 -- 59
2021-02-24 14:00:00 12.4 15 Sudeste 33 Sudeste 0 921.5 -- 64
2021-02-24 13:00:00 11.4 12 Sudeste 31 Este 0 922.4 -- 70
2021-02-24 12:00:00 9.5 16 Sudeste 30 Sudeste 0 923.2 -- 77
2021-02-24 11:00:00 8.7 18 Sudeste 32 Este 0 923.4 -- 79
2021-02-24 10:00:00 8 14 Sudeste 28 Sudeste 0 923 -- 81
2021-02-24 09:00:00 6.2 9 Sudeste 29 Sudeste 0 923 -- 87
2021-02-24 08:00:00 5.8 10 Sudeste 17 Sudeste 0 922.6 -- 85
2021-02-24 07:00:00 6.3 7 Sudeste 22 Sudeste 0 922.2 -1 83
2021-02-24 06:00:00 5.4 7 Sudeste 15 Sur 0 922.3 -1.3 88
2021-02-24 05:00:00 4.9 6 Sudeste 10 Sudeste 0 922.7 -- 90
2021-02-24 04:00:00 4.9 2 Este 8 Sudeste 0 923.2 -- 89
2021-02-24 03:00:00 4.8 2 Nordeste 6 Noroeste 0 923.6 -- 89
2021-02-24 02:00:00 5.1 2 Noroeste 6 Noroeste 0 923.9 0.1 87
2021-02-24 01:00:00 5.7 2 Noroeste 6 Sur 0 924.1 -- 82
2021-02-24 00:00:00 6.3 3 Oeste 14 Sudeste 0 924 -- 79
2021-02-23 23:00:00 7.1 8 Sudeste 15 Sudeste 0 923.8 -- 76
2021-02-23 22:00:00 7.3 4 Sudeste 9 Sudeste 0 923.8 -- 75
2021-02-23 21:00:00 8 4 Sudeste 9 Sudeste 0 923.4 1.3 70
2021-02-23 20:00:00 9.3 2 Sudeste 11 Sudeste 0 923 -- 64
2021-02-23 19:00:00 10.9 5 Sudeste 16 Sur 0 922.4 -- 60
2021-02-23 18:00:00 12.7 8 Sur 23 Sur 0 922.1 -- 50
2021-02-23 17:00:00 13.5 9 Sur 21 Sur 0 921.8 -- 46
2021-02-23 16:00:00 13.6 8 Sur 18 Sur 0 921.8 -- 48
2021-02-23 15:00:00 13 7 Sur 22 Sur 0 921.9 -- 53
2021-02-23 14:00:00 12 9 Sudeste 22 Sudeste 0 922.1 -- 53
2021-02-23 13:00:00 11.3 9 Sur 21 Sudeste 0 922.5 -- 56
2021-02-23 12:00:00 10.7 7 Sur 17 Sudeste 0 922.6 -- 57
2021-02-23 11:00:00 9.1 7 Sur 16 Sur 0 922.1 -- 64
2021-02-23 10:00:00 6.6 3 Sur 5 Sudeste 0 921.7 -- 75
2021-02-23 09:00:00 2.7 3 Norte 7 Norte 0 920.9 -- 89
2021-02-23 08:00:00 2.6 0 Calma 7 Norte 0 919.7 -- 89
2021-02-23 07:00:00 3.3 0 Calma 4 Este 0 919.1 -- 90
2021-02-23 06:00:00 3.1 3 Norte 4 Norte 0 918.5 -- 91
2021-02-23 05:00:00 3.8 0 Calma 5 Norte 0 918.1 -- 88
2021-02-23 04:00:00 4.4 3 Sudoeste 5 Nordeste 0 917.6 -- 88
2021-02-23 03:00:00 4.4 2 Oeste 5 Norte 0 917.2 -- 87
2021-02-23 02:00:00 4.6 0 Calma 7 Norte 0 916.7 -- 87
2021-02-23 01:00:00 5.2 0 Calma 8 Noroeste 0 915.9 -- 86
2021-02-23 00:00:00 5.3 2 Norte 10 Sudoeste 0 915.2 -- 85
2021-02-22 23:00:00 5.5 4 Noroeste 17 Norte 0 914.6 -- 84
2021-02-22 22:00:00 5.7 4 Noroeste 10 Norte 0 914.2 -- 84
2021-02-22 21:00:00 5.8 4 Norte 15 Norte 0.2 913.6 -- 81
2021-02-22 20:00:00 6.1 4 Noroeste 14 Norte 0 912.9 -- 78
2021-02-22 19:00:00 6.3 5 Noroeste 23 Nordeste 0 912 -- 76
2021-02-22 18:00:00 6.8 4 Norte 19 Norte 0 910.5 -- 74
2021-02-22 17:00:00 7.4 5 Noroeste 19 Norte 0 909.5 -- 72
2021-02-22 16:00:00 6.7 5 Noroeste 24 Noroeste 0 908.9 -- 76
2021-02-22 15:00:00 6.5 9 Noroeste 23 Noroeste 0 908.2 -- 79
2021-02-22 14:00:00 6.4 9 Noroeste 26 Noroeste 0 907.9 -- 79
2021-02-22 13:00:00 5.8 6 Noroeste 21 Noroeste 0 907.8 -- 83
2021-02-22 12:00:00 5.9 6 Noroeste 19 Noroeste 0 907.5 -- 84
2021-02-22 11:00:00 5 6 Noroeste 18 Noroeste 0 906.9 -- 89
2021-02-22 10:00:00 4.3 9 Noroeste 20 Noroeste 0 906.2 -- 91
2021-02-22 09:00:00 3.9 7 Noroeste 17 Noroeste 0.2 905.4 -- 93
2021-02-22 08:00:00 3.7 9 Noroeste 18 Noroeste 0 904.4 -- 94
2021-02-22 07:00:00 3.8 5 Noroeste 18 Noroeste 0.2 903.3 1.6 94
2021-02-22 06:00:00 3.8 7 Noroeste 17 Noroeste 0.2 902.5 -- 94
2021-02-22 05:00:00 3.9 8 Oeste 16 Noroeste 0.4 901.9 -- 93
2021-02-22 04:00:00 4 6 Noroeste 21 Oeste 0 901.7 -- 91
2021-02-22 03:00:00 4.1 0 Calma 8 Nordeste 0.2 901 -- 91
2021-02-22 02:00:00 4.1 5 Norte 11 Norte 0.6 900.7 -- 89
2021-02-22 01:00:00 4.5 4 Norte 21 Sudoeste 3.6 900.3 -- 85
2021-02-22 00:00:00 5.7 9 Oeste 20 Oeste 2.4 899.7 -- 89
2021-02-21 23:00:00 7.2 10 Sur 31 Sudeste 0.6 898.7 -- 86
2021-02-21 22:00:00 8.9 17 Sudeste 34 Sudeste 0 897.7 0.5 79
2021-02-21 21:00:00 9.2 14 Sudeste 30 Sudeste 0 897.6 -- 76
2021-02-21 20:00:00 9.5 17 Sudeste 33 Sudeste 0 897.5 -- 75
2021-02-21 19:00:00 9.8 13 Sudeste 24 Sudeste 0 897.2 -- 72
2021-02-21 18:00:00 10 12 Sudeste 27 Sudeste 0 896.9 -- 71
2021-02-21 17:00:00 10.3 11 Sudeste 31 Sur 0 896.8 -- 70
2021-02-21 16:00:00 10.3 13 Sudeste 30 Este 0 897 -- 68
2021-02-21 15:00:00 10.6 10 Sudeste 26 Sudeste 0 897.6 -- 66
2021-02-21 14:00:00 10.8 8 Sudeste 27 Sur 0 898.3 -- 67
2021-02-21 13:00:00 10 10 Sudeste 24 Sudeste 0 898.7 -- 69
2021-02-21 12:00:00 9.3 9 Sudeste 21 Sudeste 0 899.8 -- 71
2021-02-21 11:00:00 8.4 13 Sur 29 Sudoeste 0 900.4 -- 70
2021-02-21 10:00:00 8.3 6 Sudoeste 17 Sur 0 900.3 -- 69
2021-02-21 09:00:00 7.7 6 Sudeste 20 Sur 0 900.1 -- 69
2021-02-21 08:00:00 8.2 4 Norte 12 Norte 0 899.6 -- 66
2021-02-21 07:00:00 8.9 5 Sur 22 Sudeste 0 900.2 -- 60
2021-02-21 06:00:00 9.2 7 Sur 33 Sudeste 0 900.9 -- 59
2021-02-21 05:00:00 9.1 17 Sudeste 34 Sudeste 0 901.4 -- 58
2021-02-21 04:00:00 8 12 Sudeste 37 Sudeste 0 902.5 -- 65
2021-02-21 03:00:00 8.8 18 Sudeste 55 Sudeste 0 903.3 -- 60
2021-02-21 02:00:00 8.8 21 Sudeste 47 Sudeste 0 903.6 -- 59
2021-02-21 01:00:00 9.7 24 Sudeste 52 Sudeste 0 903.7 -- 54
2021-02-21 00:00:00 10.2 29 Sudeste 57 Sudeste 0 903.7 -- 51
2021-02-20 23:00:00 10.1 25 Sudeste 47 Sudeste 0 904.1 -- 53
2021-02-20 22:00:00 10.4 23 Sudeste 47 Sudeste 0 904.3 -- 54
2021-02-20 21:00:00 11 20 Sudeste 38 Sudeste 0 904.5 -- 53
2021-02-20 20:00:00 12.5 21 Sudeste 42 Sudeste 0 904.9 -- 47
2021-02-20 19:00:00 13.8 15 Sudeste 35 Sudeste 0 904.7 -- 43
2021-02-20 18:00:00 16.5 16 Sudeste 33 Sudeste 0 904.6 -- 32
2021-02-20 17:00:00 16.8 14 Sudeste 39 Sudeste 0 904.9 -- 27
2021-02-20 16:00:00 18.6 14 Sudeste 32 Sudeste 0 905 -- 23
2021-02-20 15:00:00 17.3 12 Sudeste 32 Sudeste 0 905.6 -- 26
2021-02-20 14:00:00 18.1 13 Sudeste 28 Sur 0 906.4 -- 23
2021-02-20 13:00:00 17.5 13 Sur 30 Sudeste 0 907.6 -- 23
2021-02-20 12:00:00 15.6 17 Sudeste 33 Sudeste 0 908.1 -- 28
2021-02-20 11:00:00 13.1 12 Sudeste 30 Sudeste 0 908.4 -- 35
2021-02-20 10:00:00 10.8 12 Sudeste 33 Sudeste 0 908.6 -- 41
2021-02-20 09:00:00 9.6 15 Sudeste 28 Sudeste 0 908.1 -0.1 43
2021-02-20 08:00:00 8.5 13 Sudeste 24 Sudeste 0 907.8 -- 47
2021-02-20 07:00:00 8.4 14 Sudeste 27 Sudeste 0 908.2 -- 51
2021-02-20 06:00:00 8.4 11 Sudeste 22 Sudeste 0 908.2 -- 54
2021-02-20 05:00:00 6.8 5 Sur 15 Sur 0 908 -- 64
2021-02-20 04:00:00 6.8 3 Sudoeste 10 Sudeste 0 908.2 -1.1 65
2021-02-20 03:00:00 7.5 2 Noroeste 15 Sudeste 0 909.1 -- 65
2021-02-20 02:00:00 8.7 11 Sudeste 25 Sudeste 0 909.1 -- 63
2021-02-20 01:00:00 8.8 10 Sudeste 20 Sudeste 0 909.3 -- 62
2021-02-20 00:00:00 8.9 6 Sudeste 16 Sudeste 0 909.9 -- 58
2021-02-19 23:00:00 6.9 3 Sudoeste 6 Sudoeste 0 909.7 0 53
2021-02-19 22:00:00 8.2 0 Calma 5 Sudoeste 0 909.7 -- 48
2021-02-19 21:00:00 9.8 0 Calma 3 Norte 0 909.8 -- 43
2021-02-19 20:00:00 12.3 0 Calma 5 Sudeste 0 909.7 -- 37
2021-02-19 19:00:00 14.8 3 Sudoeste 24 Sudoeste 0 909.4 -- 27
2021-02-19 18:00:00 17.2 12 Sudoeste 23 Sudoeste 0 909.5 -- 23
2021-02-19 17:00:00 18.1 13 Oeste 28 Sudoeste 0 909.5 -0.9 23
2021-02-19 16:00:00 18.2 9 Sudoeste 27 Sudoeste 0 909.7 -- 24
2021-02-19 15:00:00 17.8 14 Sudoeste 30 Sur 0 910 -- 23
2021-02-19 14:00:00 17.5 10 Sudoeste 30 Sur 0 910.4 -- 24
2021-02-19 13:00:00 16.7 8 Sudoeste 17 Sur 0 911.2 -- 31
2021-02-19 12:00:00 14.9 9 Sudoeste 17 Sur 0 911.8 -- 40
2021-02-19 11:00:00 11.3 4 Sudoeste 9 Sudoeste 0 912 -- 56
2021-02-19 10:00:00 6.1 0 Calma 5 Oeste 0 911.9 -- 70
2021-02-19 09:00:00 1.6 0 Calma 3 Sudoeste 0 911.7 -- 81
2021-02-19 08:00:00 0.9 0 Calma 4 Sudoeste 0 911.2 -- 84
2021-02-19 07:00:00 1.4 2 Sudeste 3 Sudoeste 0 911.2 -- 83
2021-02-19 06:00:00 1.6 0 Calma 4 Sur 0 910.9 -- 83
2021-02-19 05:00:00 1.8 2 Sur 3 Oeste 0 910.6 -- 80
2021-02-19 04:00:00 2.5 0 Calma 5 Norte 0 910.8 -- 78
2021-02-19 03:00:00 3.1 0 Calma 5 Nordeste 0 911.1 -- 78
2021-02-19 02:00:00 3.6 0 Calma 6 Norte 0 911.2 -- 74
2021-02-19 01:00:00 4.4 2 Norte 6 Norte 0 911.6 -- 72
2021-02-19 00:00:00 5.2 2 Norte 5 Nordeste 0 911.7 -- 68
2021-02-18 23:00:00 6.3 2 Noroeste 6 Norte 0 911.7 -- 64
2021-02-18 22:00:00 7.6 2 Norte 9 Norte 0 911.2 -- 60
2021-02-18 21:00:00 9.2 2 Norte 6 Norte 0 910.9 -- 53
2021-02-18 20:00:00 11.2 3 Norte 9 Norte 0 910.4 -- 47
2021-02-18 19:00:00 13.7 3 Noroeste 16 Noroeste 0 910 -- 37
2021-02-18 18:00:00 16 8 Noroeste 28 Noroeste 0 909.7 -- 30
2021-02-18 17:00:00 17.1 11 Noroeste 27 Noroeste 0 909.4 -- 27
2021-02-18 16:00:00 17.7 11 Oeste 25 Oeste 0 909.2 -- 26
2021-02-18 15:00:00 17.2 12 Oeste 26 Oeste 0 909.3 -- 26
2021-02-18 14:00:00 17.1 10 Oeste 25 Oeste 0 909.7 -- 28
2021-02-18 13:00:00 15.8 7 Oeste 14 Noroeste 0 910.3 -- 38
2021-02-18 12:00:00 14 3 Oeste 6 Sudoeste 0 910.4 -- 44
2021-02-18 11:00:00 9.9 2 Oeste 9 Noroeste 0 910.5 -- 57
2021-02-18 10:00:00 5.7 2 Oeste 5 Noroeste 0 910.5 -- 68
2021-02-18 09:00:00 1.8 2 Sudoeste 3 Este 0 910.3 -- 81
2021-02-18 08:00:00 1.4 0 Calma 3 Sudeste 0 909.4 -- 81
2021-02-18 07:00:00 1.7 0 Calma 4 Sudeste 0 909.4 -- 80
2021-02-18 06:00:00 2.1 0 Calma 3 Sur 0 909.4 -- 79
2021-02-18 05:00:00 2.9 0 Calma 3 Norte 0 909.7 -- 76
2021-02-18 04:00:00 3.4 0 Calma 3 Norte 0 910.3 -- 74
2021-02-18 03:00:00 4.2 3 Norte 5 Nordeste 0 910.7 -- 70
2021-02-18 02:00:00 4.9 2 Norte 5 Norte 0 910.9 -- 67
2021-02-18 01:00:00 5.4 0 Calma 5 Norte 0 911.2 -- 67
2021-02-18 00:00:00 5.8 0 Calma 3 Oeste 0 911.6 -- 68
2021-02-17 23:00:00 6.8 0 Calma 7 Norte 0 911.9 -- 64
2021-02-17 22:00:00 7.9 0 Calma 5 Oeste 0 911.8 -- 60
2021-02-17 21:00:00 9.7 2 Norte 4 Norte 0 911.9 -- 54
2021-02-17 20:00:00 12 0 Calma 5 Sudoeste 0 911.9 -- 47
2021-02-17 19:00:00 15 3 Sudoeste 15 Sudoeste 0 911.7 -- 35
2021-02-17 18:00:00 17.3 9 Sudoeste 19 Sudoeste 0 911.9 -- 28
2021-02-17 17:00:00 18 9 Sudoeste 21 Sudoeste 0 912.2 -- 26
2021-02-17 16:00:00 18.8 8 Oeste 18 Sudoeste 0 912.3 -- 28
2021-02-17 15:00:00 18.1 5 Sudoeste 16 Oeste 0 912.8 -- 33
2021-02-17 14:00:00 17.3 7 Sudoeste 19 Sudoeste 0 913.5 -- 35
2021-02-17 13:00:00 16.2 8 Oeste 15 Oeste 0 914.2 -- 42
2021-02-17 12:00:00 13.7 5 Sur 9 Sur 0 914.9 -- 57
2021-02-17 11:00:00 8.3 3 Oeste 5 Oeste 0 915.4 -- 73
2021-02-17 10:00:00 5.1 3 Oeste 5 Oeste 0 915.3 -- 81
2021-02-17 09:00:00 2.2 0 Calma 4 Sudeste 0 915.2 -- 89
2021-02-17 08:00:00 1.7 0 Calma 3 Norte 0 914.9 -- 91
2021-02-17 07:00:00 1.8 0 Calma 2 Sudeste 0 914.9 -- 89
2021-02-17 06:00:00 2.2 0 Calma 5 Norte 0 915.1 -- 89
2021-02-17 05:00:00 2.5 0 Calma 5 Sudoeste 0 915.2 -- 88
2021-02-17 04:00:00 3 0 Calma 5 Sudoeste 0 915.4 -- 87
2021-02-17 03:00:00 3.5 0 Calma 6 Nordeste 0 915.7 -- 84
2021-02-17 02:00:00 4.4 3 Norte 7 Norte 0 915.8 -- 83
2021-02-17 01:00:00 4.8 2 Sudeste 8 Oeste 0 916 -- 82
2021-02-17 00:00:00 5.6 3 Norte 8 Oeste 0 916.2 -- 78
2021-02-16 23:00:00 6.8 0 Calma 5 Norte 0 916.2 -- 73
2021-02-16 22:00:00 8.2 0 Calma 6 Norte 0 916.2 -- 70
2021-02-16 21:00:00 9.6 0 Calma 8 Norte 0 916.1 -- 63
2021-02-16 20:00:00 11.7 4 Sudeste 6 Sudoeste 0 916 -- 53
2021-02-16 19:00:00 13.5 4 Sudoeste 12 Sudoeste 0 915.9 -- 46
2021-02-16 18:00:00 16.3 6 Sudoeste 14 Sudoeste 0 915.7 -- 42
2021-02-16 17:00:00 17.3 8 Oeste 17 Noroeste 0 915.9 -- 39
2021-02-16 16:00:00 17.3 4 Oeste 10 Oeste 0 916.1 -- 41
2021-02-16 15:00:00 16.2 5 Sudoeste 14 Sudoeste 0 916.7 -- 46
2021-02-16 14:00:00 15.1 6 Sudoeste 14 Sudoeste 0.2 917.3 -- 47
2021-02-16 13:00:00 12.6 3 Sudoeste 9 Sudeste 0 917.8 -- 60
2021-02-16 12:00:00 8.4 4 Oeste 7 Sur 0 918.3 -- 76
2021-02-16 11:00:00 5 3 Sudoeste 7 Oeste 0 918.6 -- 88
2021-02-16 10:00:00 2.5 3 Sur 6 Sur 0.2 918.6 -- 94
2021-02-16 09:00:00 0.6 2 Sudeste 4 Sudeste 0 918.2 -- 94
2021-02-16 08:00:00 0.1 0 Calma 5 Oeste 0 917.7 -- 93
2021-02-16 07:00:00 0.8 4 Sudeste 5 Sudeste 0 917.9 -- 94
2021-02-16 06:00:00 1.3 0 Calma 4 Noroeste 0 918.3 -- 93
2021-02-16 05:00:00 2.2 0 Calma 4 Sudeste 0 918.5 -- 94
2021-02-16 04:00:00 2.4 0 Calma 4 Sudeste 0 919 -- 92
2021-02-16 03:00:00 3.3 0 Calma 3 Sudeste 0 919.4 -- 92
2021-02-16 02:00:00 3.6 2 Sudoeste 5 Noroeste 0 919.9 -- 88
2021-02-16 01:00:00 4.5 0 Calma 4 Sudeste 0 920.6 -- 87
2021-02-16 00:00:00 5.1 2 Sudeste 7 Sudeste 0 921 -- 85
2021-02-15 23:00:00 5.8 4 Sudeste 16 Sudeste 0 921 -- 83
2021-02-15 22:00:00 6.8 3 Sudeste 14 Sur 0 921 -- 77
2021-02-15 21:00:00 7.1 8 Sudeste 19 Sudeste 0 920.8 -- 78
2021-02-15 20:00:00 7.4 5 Sudeste 19 Sudeste 0 920.8 -- 77
2021-02-15 19:00:00 8.9 11 Sudeste 24 Sudeste 0 920.7 -- 72
2021-02-15 18:00:00 11 14 Sudeste 27 Sudeste 0 920.4 -- 63
2021-02-15 17:00:00 11.9 10 Sur 24 Sudeste 0 920.4 -- 57
2021-02-15 16:00:00 12.2 11 Sudeste 23 Sudeste 0 920.5 -- 59
2021-02-15 15:00:00 12.1 10 Sudeste 22 Sudeste 0 921 -- 58
2021-02-15 14:00:00 11.4 8 Sudeste 19 Sur 0 921.7 -- 60
2021-02-15 13:00:00 9.7 10 Sudeste 19 Sudeste 0 922.5 -- 66
2021-02-15 12:00:00 8.7 9 Sur 20 Sudeste 0 923 -- 71
2021-02-15 11:00:00 8 8 Sudeste 22 Sudeste 0 922.9 -- 75
2021-02-15 10:00:00 7.4 10 Sudeste 22 Sudeste 0 922.6 -- 80
2021-02-15 09:00:00 6.7 6 Sur 13 Sudeste 0 922.3 -- 86
2021-02-15 08:00:00 6.3 6 Sudeste 16 Sur 0 921.9 -- 87
2021-02-15 07:00:00 6.3 5 Sur 15 Sudeste 0 921.7 -- 87
2021-02-15 06:00:00 6.1 7 Sudeste 19 Sudeste 0 921.4 -- 87
2021-02-15 05:00:00 5.9 4 Sur 11 Sudeste 0 921.4 -- 87
2021-02-15 04:00:00 5.7 5 Sur 11 Sur 0 921.7 -- 87
2021-02-15 03:00:00 6.3 5 Sur 19 Sudeste 0 922.1 -- 84
2021-02-15 02:00:00 6.8 12 Sudeste 23 Sudeste 0 922.1 -- 83
2021-02-15 01:00:00 6.6 8 Sudeste 19 Sudeste 0 922.3 -- 84
2021-02-15 00:00:00 6.6 11 Sudeste 28 Sudeste 0 922 -- 84
2021-02-14 23:00:00 6.5 12 Sudeste 26 Sudeste 0 921.9 -- 83
2021-02-14 22:00:00 7.1 13 Sudeste 30 Sudeste 0 921.6 -- 79
2021-02-14 21:00:00 7.8 14 Sudeste 27 Sudeste 0 921 -- 76
2021-02-14 20:00:00 9.1 13 Sudeste 24 Sudeste 0 920.6 -- 67
2021-02-14 19:00:00 10.7 12 Sudeste 23 Sur 0 920.3 1.1 61
2021-02-14 18:00:00 13.5 8 Sudeste 21 Sur 0 919.6 0.5 50
2021-02-14 17:00:00 14.8 12 Sur 23 Sur 0 919.3 -- 45
2021-02-14 16:00:00 15.5 7 Sur 19 Sur 0 919.2 -- 42
2021-02-14 15:00:00 15.2 8 Sur 17 Sur 0 919.1 -- 40
2021-02-14 14:00:00 14.1 10 Sur 25 Sur 0 919.4 -- 45
2021-02-14 13:00:00 12.9 9 Sur 24 Sudeste 0 919.7 -- 51
2021-02-14 12:00:00 11.4 12 Sudeste 25 Sudeste 0 920 -- 55
2021-02-14 11:00:00 8.5 3 Sur 6 Sudoeste 0 919.7 -- 70
2021-02-14 10:00:00 5 3 Oeste 5 Sudeste 0 919.6 -- 83
2021-02-14 09:00:00 1 2 Sur 8 Norte 0 919.2 -- 91
2021-02-14 08:00:00 0.8 2 Sudeste 5 Noroeste 0 918.4 -- 92
2021-02-14 07:00:00 1.3 2 Norte 5 Este 0 917.8 -- 91
2021-02-14 06:00:00 1.5 2 Sudoeste 7 Sudoeste 0 917.6 -- 88
2021-02-14 05:00:00 2.3 5 Nordeste 14 Norte 0 917.3 -- 90
2021-02-14 04:00:00 2.3 4 Norte 13 Norte 0 917.3 -- 87
2021-02-14 03:00:00 2.5 0 Calma 4 Norte 0 917.5 -- 86
2021-02-14 02:00:00 3.3 2 Este 5 Sudeste 0 917.8 -- 87
2021-02-14 01:00:00 3.8 3 Sudoeste 5 Norte 0 917.7 -- 85
2021-02-14 00:00:00 4.6 3 Este 9 Norte 0 917.5 -- 84
2021-02-13 23:00:00 5.5 3 Norte 9 Noroeste 0 917 -- 80
2021-02-13 22:00:00 6.6 0 Calma 7 Nordeste 0 917 -- 76
2021-02-13 21:00:00 7.6 3 Noroeste 12 Noroeste 0 916.7 -- 71
2021-02-13 20:00:00 9.3 4 Nordeste 12 Norte 0 916.1 -- 63
2021-02-13 19:00:00 10.7 5 Noroeste 17 Norte 0 915.7 -- 56
2021-02-13 18:00:00 13.2 6 Norte 23 Noroeste 0 915.1 -- 45
2021-02-13 17:00:00 14.1 10 Noroeste 24 Noroeste 0 915 -- 43
2021-02-13 16:00:00 14.1 9 Noroeste 29 Noroeste 0 914.7 -- 43
2021-02-13 15:00:00 13.3 6 Noroeste 24 Oeste 0 915.1 -- 44
2021-02-13 14:00:00 14.1 6 Noroeste 23 Norte 0 915.3 -- 50
2021-02-13 13:00:00 12.1 7 Noroeste 17 Noroeste 0 915.7 -- 57
2021-02-13 08:00:00 2.7 3 Norte 11 Norte 0 915 0.9 93
2021-02-13 07:00:00 3.1 4 Norte 10 Nordeste 0 915.1 1 94
2021-02-13 06:00:00 3.6 3 Nordeste 8 Oeste 0 914.6 0.4 94
2021-02-13 05:00:00 3.7 3 Noroeste 9 Noroeste 0 914.1 -0.1 94
2021-02-13 04:00:00 4 2 Sudoeste 8 Sudoeste 0 914.1 0.3 90
2021-02-13 03:00:00 4.9 3 Oeste 14 Noroeste 0 914.2 0.8 88
2021-02-13 02:00:00 5.3 6 Noroeste 13 Noroeste 0 914.2 0.9 86
2021-02-13 01:00:00 6.3 3 Sur 21 Noroeste 0 913.8 1 82
2021-02-13 00:00:00 6.8 3 Noroeste 13 Noroeste 0 913.4 0.8 80
2021-02-12 23:00:00 7.7 4 Noroeste 19 Noroeste 0 913.3 1.1 76
2021-02-12 22:00:00 8.6 7 Noroeste 16 Noroeste 0 912.8 1.1 74
2021-02-12 21:00:00 8.7 6 Noroeste 22 Noroeste 0 912.6 1.4 74
2021-02-12 20:00:00 9.3 9 Noroeste 24 Noroeste 0 912.2 1.4 73
2021-02-12 19:00:00 9.8 8 Noroeste 27 Noroeste 0 911.7 1.4 69
2021-02-12 18:00:00 11.2 9 Noroeste 32 Noroeste 0.2 911.2 1.2 64
2021-02-12 17:00:00 11.8 12 Noroeste 33 Oeste 0 910.8 0.9 60
2021-02-12 16:00:00 12.1 12 Noroeste 42 Oeste 0 910.3 0.2 60
2021-02-12 15:00:00 12.4 15 Noroeste 36 Norte 0 910 0.1 59
2021-02-12 14:00:00 12.4 14 Noroeste 39 Noroeste 0 909.9 0.2 60
2021-02-12 13:00:00 10.4 13 Noroeste 33 Noroeste 0 910.1 0.4 70
2021-02-12 12:00:00 10.1 11 Noroeste 31 Noroeste 0 909.9 0.6 75
2021-02-12 11:00:00 9.4 13 Noroeste 25 Noroeste 0 909.7 0.9 88
2021-02-12 10:00:00 8.2 8 Oeste 51 Oeste 0.6 909.7 0.5 87
2021-02-12 09:00:00 9 5 Noroeste 19 Sudoeste 2 909.3 -- 96
2021-02-12 08:00:00 9.2 5 Oeste 26 Oeste 0 908.8 -- 93
2021-02-12 07:00:00 9.5 9 Oeste 21 Oeste 0 909.2 -- 93
2021-02-12 06:00:00 9.6 5 Oeste 15 Oeste 0 909.2 -- 95
2021-02-12 05:00:00 9.7 5 Sudoeste 12 Sudoeste 0.2 909.3 -- 93
2021-02-12 04:00:00 9.7 2 Sur 9 Sudoeste 0 909.8 -- 94
2021-02-12 03:00:00 9.7 4 Sudeste 8 Sudeste 0 909.8 -- 94
2021-02-12 02:00:00 9.7 3 Sudeste 8 Sudeste 0 910.1 -- 95
2021-02-12 01:00:00 9.7 3 Sur 7 Sudeste 0 910.2 -- 94
2021-02-12 00:00:00 9.6 0 Calma 5 Sudeste 0 910.6 -- 93
2021-02-11 23:00:00 10.2 4 Este 7 Sudeste 0 910.6 -- 92
2021-02-11 22:00:00 10.3 3 Sudeste 5 Norte 0 911.1 -- 92
2021-02-11 21:00:00 10.4 3 Sudoeste 5 Nordeste 0 911.2 -- 90
2021-02-11 20:00:00 10.9 0 Calma 6 Norte 0 910.9 -- 88
2021-02-11 19:00:00 11.1 2 Norte 10 Noroeste 0 910.7 -- 87
2021-02-11 18:00:00 11.6 4 Noroeste 10 Noroeste 0 910.6 -- 85
2021-02-11 17:00:00 11.6 3 Noroeste 8 Noroeste 0 910.5 -- 86
2021-02-11 16:00:00 11 2 Noroeste 7 Oeste 0.2 910.9 -- 90
2021-02-11 15:00:00 10.9 3 Nordeste 9 Noroeste 0 910.8 -- 88
2021-02-11 14:00:00 10.6 4 Norte 8 Este 0 911.4 -- 87
2021-02-11 13:00:00 8.9 2 Este 7 Sudoeste 0 912 -- 90
2021-02-11 12:00:00 8.1 2 Sudeste 6 Este 0 911.8 -- 92
2021-02-11 11:00:00 7 4 Sudeste 6 Sur 0 911.8 -- 97
2021-02-11 10:00:00 5.9 2 Sudeste 4 Este 0 911.5 -- 97
2021-02-11 09:00:00 5.4 4 Oeste 6 Oeste 0 911.1 -- 92
2021-02-11 08:00:00 5 3 Sudeste 6 Sudeste 0 910.5 -- 91
2021-02-11 07:00:00 4.5 3 Sudoeste 6 Sudoeste 0 910.3 -- 90
2021-02-11 06:00:00 4.5 2 Este 5 Noroeste 0 909.9 -- 90
2021-02-11 05:00:00 4.5 0 Calma 5 Oeste 0 910.1 -- 88
2021-02-11 04:00:00 4 0 Calma 3 Sudoeste 0 910.1 -- 88
2021-02-11 03:00:00 3.6 0 Calma 5 Oeste 0 910.1 -- 87
2021-02-11 02:00:00 3.1 2 Noroeste 5 Este 0 910.3 -- 89
2021-02-11 01:00:00 3.1 0 Calma 6 Nordeste 0 909.7 -- 87
2021-02-11 00:00:00 3.8 0 Calma 5 Este 0 909.2 -- 87
2021-02-10 23:00:00 4.7 3 Sudoeste 6 Sur 0 908.4 -- 82
2021-02-10 22:00:00 5.8 3 Norte 7 Norte 0 908.1 -- 79
2021-02-10 21:00:00 6.7 3 Sur 6 Norte 0 907.2 -- 76
2021-02-10 20:00:00 7.9 2 Norte 13 Noroeste 0 906.9 -- 70
2021-02-10 19:00:00 9 5 Noroeste 24 Noroeste 0 906.1 -- 64
2021-02-10 18:00:00 10.5 9 Noroeste 27 Oeste 0 905.3 -- 58
2021-02-10 17:00:00 11.3 15 Oeste 31 Oeste 0 904.7 -- 50
2021-02-10 16:00:00 12.2 6 Noroeste 30 Noroeste 0 904.2 -- 45
2021-02-10 15:00:00 11.7 12 Noroeste 30 Noroeste 0 903.5 -- 48
2021-02-10 14:00:00 10.6 9 Noroeste 40 Noroeste 0 903.3 -- 58
2021-02-10 13:00:00 10 13 Noroeste 37 Noroeste 0 902.8 -- 62
2021-02-10 12:00:00 8.3 14 Noroeste 44 Noroeste 0 902 -- 69
2021-02-10 11:00:00 7.3 12 Noroeste 44 Noroeste 0 901 -- 78
2021-02-10 10:00:00 6.7 14 Noroeste 36 Noroeste 0 899.9 -- 82
2021-02-10 09:00:00 5.8 14 Noroeste 45 Noroeste 0 898.7 -- 89
2021-02-10 08:00:00 5.5 14 Noroeste 50 Noroeste 0.4 897.5 -- 91
2021-02-10 07:00:00 5 18 Noroeste 48 Oeste 2.2 896.7 -- 89
2021-02-10 06:00:00 5.5 18 Oeste 43 Oeste 0 895.7 -- 88
2021-02-10 05:00:00 5.4 16 Oeste 36 Oeste 0.4 896.1 -- 92
2021-02-10 04:00:00 5.2 10 Oeste 29 Oeste 0.6 896.4 -- 94
2021-02-10 03:00:00 5.2 11 Oeste 27 Oeste 0.6 896.8 -- 92
2021-02-10 02:00:00 5.3 10 Sudoeste 30 Oeste 0 897.4 -- 92
2021-02-10 01:00:00 5.7 10 Oeste 31 Noroeste 0.6 897.7 -- 91
2021-02-10 00:00:00 6 12 Oeste 30 Sudoeste 0 897.2 -- 89
2021-02-09 23:00:00 6.5 14 Oeste 31 Oeste 0 897.3 -- 89
2021-02-09 22:00:00 6.7 9 Oeste 34 Oeste 0 896.8 -- 91
2021-02-09 21:00:00 6.1 13 Sudoeste 26 Oeste 0.6 896.6 -- 95
2021-02-09 20:00:00 5.7 5 Sudoeste 12 Sudoeste 0.2 896.4 -- 95
2021-02-09 19:00:00 5.1 4 Sudeste 13 Norte 0.4 896.3 -- 94
2021-02-09 18:00:00 5.3 4 Norte 41 Noroeste 1.2 896.1 -- 92
2021-02-09 17:00:00 7.8 22 Oeste 49 Oeste 1.6 895.6 -- 91
2021-02-09 16:00:00 7.8 17 Sudoeste 47 Sudoeste 1.8 895.5 -- 91
2021-02-09 15:00:00 7.4 15 Sudoeste 41 Sudoeste 1.8 895.5 -- 92
2021-02-09 14:00:00 6.9 12 Sudoeste 34 Oeste 2 896.7 -- 95
2021-02-09 13:00:00 7.1 14 Sudoeste 33 Sur 0 898.1 -- 88
2021-02-09 12:00:00 6.8 10 Sudoeste 27 Sur 0 899.3 -- 87
2021-02-09 11:00:00 6.2 8 Sudoeste 20 Sudoeste 0 899.6 -- 90
2021-02-09 10:00:00 5.4 10 Sudoeste 23 Sudoeste 0 899.9 -- 93
2021-02-09 09:00:00 4.8 10 Sudoeste 20 Sudoeste 0.4 899.8 -- 98
2021-02-09 08:00:00 4.2 3 Sudoeste 14 Sudoeste 0.2 899.6 -- 97
2021-02-09 07:00:00 3.8 2 Sudoeste 11 Norte 0 899.8 -- 92
2021-02-09 06:00:00 3.8 4 Norte 13 Noroeste 0.4 900.3 -- 91
2021-02-09 05:00:00 3.9 5 Noroeste 29 Oeste 0.6 900.9 -- 90
2021-02-09 04:00:00 4.6 14 Oeste 31 Oeste 0.2 901.1 -- 86
2021-02-09 03:00:00 4.9 8 Oeste 22 Oeste 0 900.7 -- 85
2021-02-09 02:00:00 5.2 7 Oeste 22 Oeste 0 900.7 -- 86
2021-02-09 01:00:00 5.4 12 Oeste 29 Oeste 0 900.8 -- 83
2021-02-09 00:00:00 5.6 15 Oeste 32 Oeste 0 900.2 -- 82
2021-02-08 23:00:00 5.7 13 Oeste 34 Noroeste 0 899.5 -- 85
2021-02-08 22:00:00 5.7 17 Oeste 38 Oeste 0.6 898.9 -- 88
2021-02-08 21:00:00 6 16 Noroeste 39 Noroeste 0.6 897.8 -- 86
2021-02-08 20:00:00 6.2 12 Noroeste 36 Oeste 1 897.1 -- 87
2021-02-08 19:00:00 6.8 11 Oeste 41 Oeste 0 896.3 -- 81
2021-02-08 18:00:00 7.8 15 Oeste 36 Sudoeste 0 895.8 -- 71
2021-02-08 17:00:00 8.4 19 Oeste 37 Oeste 0 895.3 -- 69
2021-02-08 16:00:00 8 12 Noroeste 36 Oeste 0 894.7 -- 73
2021-02-08 15:00:00 7.3 12 Noroeste 36 Oeste 0 894.8 -- 81
2021-02-08 14:00:00 6.5 9 Noroeste 37 Oeste 0 895.4 -- 85
2021-02-08 13:00:00 5.9 14 Oeste 33 Oeste 0.4 896.1 -- 88
2021-02-08 12:00:00 6.8 11 Noroeste 30 Noroeste 0 896.1 -- 82
2021-02-08 11:00:00 6.4 14 Noroeste 31 Noroeste 0 895.5 -- 87
2021-02-08 10:00:00 6 12 Noroeste 30 Noroeste 0.4 894.7 -- 91
2021-02-08 09:00:00 5.8 5 Sudoeste 24 Oeste 0.6 894.1 -- 95
2021-02-08 08:00:00 5.6 13 Sudoeste 31 Oeste 2.4 894 -- 94
2021-02-08 07:00:00 5.1 8 Sudoeste 22 Noroeste 5.4 894.4 -- 97
2021-02-08 06:00:00 4.6 6 Sur 17 Sudoeste 1 895 -- 97
2021-02-08 05:00:00 4.5 9 Sudoeste 22 Sudoeste 1.2 895.9 -- 97
2021-02-08 04:00:00 4.4 10 Sudoeste 24 Sudoeste 0.2 896.6 -- 98
2021-02-08 03:00:00 4.4 6 Sudoeste 20 Oeste 0.2 897.6 -- 97
2021-02-08 02:00:00 4.1 6 Oeste 19 Oeste 0.2 898.3 -- 96
2021-02-08 01:00:00 4.1 10 Oeste 23 Oeste 0 898.7 -- 94
2021-02-08 00:00:00 4.3 7 Oeste 18 Oeste 0.2 898.9 -- 91
2021-02-07 23:00:00 4.5 3 Noroeste 13 Oeste 0.8 899.4 -- 87
2021-02-07 22:00:00 4.9 7 Oeste 19 Oeste 0.4 899.6 -- 84
2021-02-07 21:00:00 5.9 8 Noroeste 31 Noroeste 0 899.6 -- 72
2021-02-07 20:00:00 6.6 12 Noroeste 27 Oeste 0 899.1 -- 74
2021-02-07 19:00:00 7 8 Noroeste 23 Noroeste 0 898.5 -- 73
2021-02-07 18:00:00 7.3 9 Noroeste 22 Noroeste 0 898.3 -- 67
2021-02-07 17:00:00 7.4 7 Noroeste 26 Oeste 0 898.1 -- 65
2021-02-07 16:00:00 7.6 8 Noroeste 24 Noroeste 0 898 -- 61
2021-02-07 15:00:00 7.9 7 Noroeste 32 Noroeste 0 898 -- 60
2021-02-07 14:00:00 8.2 12 Noroeste 24 Noroeste 0 898.3 -- 54
2021-02-07 13:00:00 8 10 Noroeste 28 Noroeste 0 898.5 -- 51
2021-02-07 12:00:00 7.2 6 Norte 21 Norte 0 898.7 -- 62
2021-02-07 11:00:00 6.1 7 Norte 25 Norte 0 898.6 -- 66
2021-02-07 10:00:00 4.2 6 Norte 30 Norte 0 898.3 -- 81
2021-02-07 09:00:00 2.7 6 Norte 18 Norte 0 897.6 -- 90
2021-02-07 08:00:00 2.4 5 Norte 14 Norte 0 897.2 -- 91
2021-02-07 07:00:00 3.1 5 Noroeste 13 Noroeste 0 896.7 -- 89
2021-02-07 06:00:00 3.9 4 Noroeste 15 Nordeste 0 896.7 -- 90
2021-02-07 05:00:00 4.4 6 Norte 15 Nordeste 0 896.6 -- 89
2021-02-07 04:00:00 4.9 4 Noroeste 13 Norte 0 896.7 -- 93
2021-02-07 03:00:00 5.3 6 Norte 11 Norte 0.2 896.4 -- 95
2021-02-07 02:00:00 5.6 4 Norte 9 Norte 0.2 896.6 -- 96
2021-02-07 01:00:00 5.7 3 Oeste 6 Sudoeste 0.4 896.6 -- 96
2021-02-07 00:00:00 5.7 4 Sur 6 Sur 0 896.6 -- 95
2021-02-06 23:00:00 5.7 4 Sur 6 Oeste 0.2 896.6 -- 93
2021-02-06 22:00:00 5.8 3 Oeste 5 Oeste 0.2 896.4 -- 92
2021-02-06 21:00:00 5.8 3 Sudoeste 6 Nordeste 0.4 896.1 -- 92
2021-02-06 20:00:00 6 2 Nordeste 16 Noroeste 1.6 896 -- 91
2021-02-06 19:00:00 6.7 8 Noroeste 18 Noroeste 1 895.5 -- 93
2021-02-06 18:00:00 6.8 3 Oeste 13 Oeste 1.2 894.9 -- 90
2021-02-06 17:00:00 7.6 5 Sudoeste 15 Sudoeste 0 894.5 -- 85
2021-02-06 16:00:00 7.9 8 Sudoeste 24 Sudoeste 0 894.3 -- 82
2021-02-06 15:00:00 8 10 Sudoeste 22 Sudoeste 0 894.1 -- 82
2021-02-06 14:00:00 8.1 12 Sudoeste 26 Sudoeste 0 894.4 -- 79
2021-02-06 13:00:00 7.7 5 Sudoeste 20 Sudoeste 0.6 894.8 -- 91
2021-02-06 12:00:00 7.4 8 Sudoeste 21 Sudoeste 0.2 895.1 -- 91
2021-02-06 11:00:00 6.9 7 Sur 18 Sudoeste 0.2 894.9 -- 91
2021-02-06 10:00:00 6.8 6 Sur 13 Sur 0 894.9 -- 92
2021-02-06 09:00:00 6.6 7 Sudeste 12 Sudeste 0.2 894.7 -- 91
2021-02-06 08:00:00 6.7 4 Sur 12 Sur 0 894.6 -- 92
2021-02-06 07:00:00 6.8 5 Sur 16 Sur 0 894.4 -- 93
2021-02-06 06:00:00 7 6 Sur 17 Sur 0.2 894.3 -- 93
2021-02-06 05:00:00 7 4 Sudoeste 21 Sur 1.8 894.5 -- 91
2021-02-06 04:00:00 7.5 10 Sudeste 27 Sudeste 0 894.3 -- 87
2021-02-06 03:00:00 7.5 15 Sudeste 26 Sudeste 0.2 894.7 -- 87
2021-02-06 02:00:00 7.6 8 Sudeste 19 Sudeste 1.8 895.1 -- 86
2021-02-06 01:00:00 7.8 4 Este 14 Nordeste 0.8 896.5 -- 87
2021-02-06 00:00:00 7.9 5 Nordeste 18 Sudeste 0 896.8 -- 84
2021-02-05 23:00:00 8 7 Sudeste 19 Sudeste 0 897.4 -- 85
2021-02-05 22:00:00 8.6 10 Sur 29 Sudeste 0 897 -- 75
2021-02-05 21:00:00 10.4 11 Sur 39 Sudeste 0 895.2 -- 62
2021-02-05 20:00:00 11.6 15 Sudeste 45 Sudeste 0 894.8 -- 53
2021-02-05 19:00:00 12.3 16 Sudeste 35 Sudeste 0 894.6 -- 52
2021-02-05 18:00:00 13.4 13 Sudeste 31 Sudeste 0 894.6 -- 53
2021-02-05 17:00:00 14.8 12 Sudeste 33 Sudeste 0 895.2 -- 49
2021-02-05 16:00:00 15.2 15 Sudeste 36 Sudeste 0 895.6 -- 49
2021-02-05 15:00:00 14.4 17 Sudeste 34 Sudeste 0 896.2 -- 51
2021-02-05 14:00:00 14.5 14 Sur 36 Sur 0 897.1 -- 52
2021-02-05 13:00:00 13.7 15 Sur 39 Sudeste 0 898 -- 54
2021-02-05 12:00:00 13.4 18 Sur 44 Sudeste 0 898.8 -- 55
2021-02-05 11:00:00 12.9 17 Sudeste 35 Este 0 898.7 -- 54
2021-02-05 10:00:00 12.6 15 Sudeste 47 Sudeste 0 898.4 -- 52
2021-02-05 09:00:00 12 27 Sudeste 49 Sudeste 0 897.6 -- 51
2021-02-05 08:00:00 12.4 23 Sudeste 43 Sudeste 0 897.8 -- 47
2021-02-05 07:00:00 12.7 23 Sudeste 46 Sudeste 0 898 -- 46
2021-02-05 06:00:00 11.2 15 Sudeste 33 Sur 0 898.4 -- 48
2021-02-05 05:00:00 6.9 3 Noroeste 7 Noroeste 0 899.5 -- 85
2021-02-05 04:00:00 6.5 2 Este 4 Sur 0 900.4 -- 87
2021-02-05 03:00:00 6.7 2 Nordeste 5 Nordeste 0 900.6 -- 85
2021-02-05 02:00:00 7 3 Oeste 8 Oeste 0 901.1 -- 85
2021-02-05 01:00:00 7.6 0 Calma 5 Oeste 0 902.2 -- 82
2021-02-05 00:00:00 8.7 0 Calma 5 Norte 0 902.5 -- 80
2021-02-04 23:00:00 9.8 3 Norte 6 Noroeste 0 902.8 -- 76
2021-02-04 22:00:00 10.7 3 Noroeste 11 Sur 0 902.7 -- 75
2021-02-04 21:00:00 12 5 Sudeste 12 Sudeste 0 902.5 -- 69
2021-02-04 20:00:00 12.4 5 Sudeste 8 Sudeste 0 902.5 -- 65
2021-02-04 19:00:00 13.3 2 Sudeste 9 Sudoeste 0 902.1 -- 59
2021-02-04 18:00:00 14.6 5 Sur 16 Oeste 0 901.6 -- 54
2021-02-04 17:00:00 15.9 7 Sudoeste 23 Sur 0 901.4 -- 46
2021-02-04 16:00:00 17.1 7 Sur 25 Sur 0 901.2 -- 40
2021-02-04 15:00:00 16.3 13 Sudeste 30 Sudeste 0 900.9 -- 44
2021-02-04 14:00:00 15.3 15 Sudeste 35 Sudeste 0 901.2 -- 50
2021-02-04 13:00:00 14.7 14 Sudeste 33 Sudeste 0 901.8 -- 50
2021-02-04 12:00:00 13.2 16 Sudeste 34 Sudeste 0 902.9 -- 59
2021-02-04 11:00:00 8.6 2 Sudeste 11 Sudeste 0 903.6 -- 90
2021-02-04 10:00:00 6.8 0 Calma 8 Oeste 0 903.6 -- 93
2021-02-04 09:00:00 5.8 2 Norte 5 Noroeste 0 903.8 -- 95
2021-02-04 08:00:00 5.4 0 Calma 4 Sur 0 903.7 -- 94
2021-02-04 07:00:00 5.5 2 Oeste 4 Oeste 0 903.9 -- 95
2021-02-04 06:00:00 5.8 0 Calma 4 Este 0 904.1 -- 94
2021-02-04 05:00:00 6.1 2 Nordeste 5 Noroeste 0 904.4 -- 92
2021-02-04 04:00:00 6.3 0 Calma 5 Noroeste 0 904.8 -- 92
2021-02-04 03:00:00 6.4 0 Calma 4 Nordeste 0 905 -- 92
2021-02-04 02:00:00 6.5 0 Calma 5 Nordeste 0 905.5 -- 91
2021-02-04 01:00:00 6.7 0 Calma 6 Oeste 0 905.7 -- 91
2021-02-04 00:00:00 7.2 3 Sudoeste 9 Oeste 0 905.9 -- 89
2021-02-03 23:00:00 7.9 0 Calma 7 Oeste 0 906 -- 87
2021-02-03 22:00:00 8.4 3 Norte 9 Norte 0 905.9 -- 86
2021-02-03 21:00:00 10.1 3 Sudoeste 7 Sudoeste 0 906 -- 82
2021-02-03 20:00:00 10.6 3 Este 9 Sudoeste 0 906.2 -- 80
2021-02-03 19:00:00 11.1 4 Sur 8 Sudoeste 0 906 -- 78
2021-02-03 18:00:00 11.7 0 Calma 9 Oeste 0 905.7 -- 75
2021-02-03 17:00:00 12 4 Sudoeste 10 Oeste 0 905.9 -- 72
2021-02-03 16:00:00 12.7 6 Oeste 14 Noroeste 0 906.2 -- 69
2021-02-03 15:00:00 12.1 5 Oeste 17 Oeste 0 906.4 -- 71
2021-02-03 14:00:00 12.3 6 Oeste 17 Norte 0 906.8 -- 72
2021-02-03 13:00:00 11.6 7 Sudoeste 20 Oeste 0 907.5 -- 75
2021-02-03 12:00:00 9.4 7 Sudoeste 16 Oeste 0 908.2 -- 83
2021-02-03 11:00:00 8.3 8 Sur 16 Sudoeste 0 908.4 -- 86
2021-02-03 10:00:00 7.8 4 Sudoeste 10 Sudoeste 0 908.2 -- 88
2021-02-03 09:00:00 7.4 3 Sur 7 Oeste 0 907.6 -- 88
2021-02-03 08:00:00 7.4 4 Sudeste 8 Sudoeste 0 907.2 -- 88
2021-02-03 07:00:00 7.6 4 Sudoeste 11 Oeste 0 907.2 -- 86
2021-02-03 06:00:00 7.9 4 Oeste 11 Noroeste 0 907.1 -- 82
2021-02-03 05:00:00 7.8 2 Noroeste 6 Noroeste 0 907.2 -- 82
2021-02-03 04:00:00 7.7 2 Noroeste 8 Oeste 0 907.6 -- 85
2021-02-03 03:00:00 7.7 2 Oeste 7 Oeste 0 908.1 -- 86
2021-02-03 02:00:00 7.9 4 Oeste 8 Oeste 0 908.3 -- 86
2021-02-03 01:00:00 8 3 Sudoeste 7 Sudoeste 0 908.4 -- 85
2021-02-03 00:00:00 8.1 2 Sur 5 Oeste 0 908.4 -- 85
2021-02-02 23:00:00 8.2 3 Sur 6 Sur 0 908.3 -- 84
2021-02-02 22:00:00 8.6 3 Sudoeste 9 Oeste 0 908.5 -- 83
2021-02-02 21:00:00 9.4 4 Oeste 11 Oeste 0 908.5 -- 80
2021-02-02 20:00:00 10 4 Oeste 17 Sudoeste 0 908.6 -- 78
2021-02-02 19:00:00 10.6 5 Oeste 12 Noroeste 0 908.3 -- 75
2021-02-02 18:00:00 11.1 7 Noroeste 14 Noroeste 0 908.3 -- 69
2021-02-02 17:00:00 11.8 7 Oeste 16 Norte 0.2 908.2 -- 70
2021-02-02 16:00:00 11.8 8 Oeste 16 Noroeste 0 908.5 -- 72
2021-02-02 15:00:00 11.5 8 Noroeste 22 Noroeste 0 908.8 -- 74
2021-02-02 14:00:00 10.5 3 Noroeste 9 Noroeste 0 909.6 -- 87
2021-02-02 13:00:00 10.1 6 Oeste 13 Oeste 0 910.2 -- 88
2021-02-02 12:00:00 9 4 Oeste 8 Oeste 0 910.9 -- 90
2021-02-02 11:00:00 7.5 3 Oeste 9 Sudoeste 0 911 -- 95
2021-02-02 10:00:00 6.9 3 Sudoeste 9 Oeste 0 910.9 -- 97
2021-02-02 09:00:00 6.7 4 Sudoeste 10 Sudoeste 0 910.3 -- 97
2021-02-02 08:00:00 7 4 Oeste 10 Oeste 0 910.2 -- 96
2021-02-02 07:00:00 7.2 7 Oeste 16 Noroeste 0 910.2 -- 96
2021-02-02 06:00:00 7.5 6 Oeste 15 Oeste 0 910.2 -- 93
2021-02-02 05:00:00 7.9 5 Oeste 13 Noroeste 0 910 -- 90
2021-02-02 04:00:00 8 4 Noroeste 10 Noroeste 0 909.7 -- 91
2021-02-02 03:00:00 8.1 3 Noroeste 21 Noroeste 0 909.6 -- 90
2021-02-02 02:00:00 8.2 6 Noroeste 20 Norte 0 909.5 -- 89
2021-02-02 01:00:00 8.4 8 Noroeste 21 Noroeste 0 909.7 -- 88
2021-02-02 00:00:00 8.5 5 Noroeste 18 Noroeste 0 909.4 -- 87
2021-02-01 23:00:00 8.6 5 Noroeste 17 Noroeste 0 909.5 -- 87
2021-02-01 22:00:00 8.7 6 Noroeste 18 Noroeste 0 909.3 -- 86
2021-02-01 21:00:00 8.9 4 Noroeste 17 Noroeste 0 909 -- 85
2021-02-01 20:00:00 9.7 7 Noroeste 19 Noroeste 0 908.5 -- 80
2021-02-01 19:00:00 10.9 7 Noroeste 29 Noroeste 0 907.9 -- 73
2021-02-01 18:00:00 12.3 12 Noroeste 28 Noroeste 0 907.4 -- 69
2021-02-01 17:00:00 13.9 10 Noroeste 34 Noroeste 0 907 -- 61
2021-02-01 16:00:00 14.8 14 Noroeste 33 Noroeste 0 906.8 -- 58
2021-02-01 15:00:00 14.4 13 Oeste 30 Noroeste 0 906.8 -- 59
2021-02-01 14:00:00 13.2 13 Oeste 27 Oeste 0 906.8 -- 63
2021-02-01 13:00:00 12.5 13 Oeste 28 Sudoeste 0 907.2 -- 66
2021-02-01 12:00:00 11.5 8 Noroeste 22 Noroeste 0 907.5 -- 67
2021-02-01 11:00:00 9.8 8 Oeste 16 Sudoeste 0 907.2 -- 76
2021-02-01 10:00:00 7.8 7 Oeste 14 Oeste 0 906.7 -- 85
2021-02-01 09:00:00 7 3 Sudoeste 9 Noroeste 0 906.1 -- 87
2021-02-01 08:00:00 7.2 5 Oeste 13 Oeste 0 905.2 -- 86
2021-02-01 07:00:00 7.3 3 Noroeste 15 Norte 0 904.8 -- 86
2021-02-01 06:00:00 7.6 8 Noroeste 27 Noroeste 0 904.2 -- 86
2021-02-01 05:00:00 8.1 10 Noroeste 37 Noroeste 0 903.7 -- 86
2021-02-01 04:00:00 8.6 13 Noroeste 27 Noroeste 0 903.7 -- 85
2021-02-01 03:00:00 8.8 10 Noroeste 29 Oeste 0 903.5 -- 85
2021-02-01 02:00:00 9.6 13 Noroeste 37 Noroeste 0 903.7 -- 83
2021-02-01 01:00:00 10.2 13 Noroeste 36 Oeste 0 903.8 -- 81
2021-02-01 00:00:00 10.4 11 Noroeste 39 Oeste 0 904.3 -- 83
2021-01-31 23:00:00 10.4 17 Noroeste 39 Noroeste 0 903.9 -- 83
2021-01-31 22:00:00 10.2 8 Noroeste 27 Oeste 0 904.4 -- 86
2021-01-31 21:00:00 10.5 9 Oeste 27 Noroeste 0 904 -- 90
2021-01-31 20:00:00 10.2 8 Noroeste 25 Oeste 0 904.2 -- 91
2021-01-31 19:00:00 9.9 9 Oeste 21 Noroeste 0 904.1 -- 91
2021-01-31 18:00:00 9.3 6 Noroeste 19 Noroeste 0.2 904.3 -- 95
2021-01-31 17:00:00 8.9 9 Noroeste 22 Oeste 0 904.3 -- 95
2021-01-31 16:00:00 8.5 3 Noroeste 14 Oeste 0.2 904.2 -- 94
2021-01-31 15:00:00 8.1 9 Noroeste 19 Noroeste 0.2 904.4 -- 92
2021-01-31 14:00:00 7.9 7 Noroeste 28 Oeste 0.4 905 -- 93
2021-01-31 13:00:00 8.2 13 Oeste 31 Oeste 0 905.6 -- 84
2021-01-31 12:00:00 8.8 13 Noroeste 34 Noroeste 0 905.8 -- 76
2021-01-31 11:00:00 7.8 9 Noroeste 24 Noroeste 0 905.8 -- 76
2021-01-31 10:00:00 6.3 7 Noroeste 16 Oeste 0.2 905.6 -- 78
2021-01-31 09:00:00 5.4 4 Noroeste 18 Oeste 0 904.9 -- 79
2021-01-31 08:00:00 5.2 3 Noroeste 17 Oeste 0 904.3 -- 80
2021-01-31 07:00:00 5.5 8 Noroeste 23 Oeste 0 903.8 -- 79
2021-01-31 06:00:00 5.7 9 Noroeste 19 Noroeste 0 903.5 -- 78
2021-01-31 05:00:00 5.7 7 Noroeste 27 Oeste 0 903.4 -- 82
2021-01-31 04:00:00 5.8 9 Noroeste 36 Oeste 0 903.5 -- 82
2021-01-31 03:00:00 6 7 Noroeste 24 Oeste 0 903.3 -- 79
2021-01-31 02:00:00 6 15 Noroeste 31 Noroeste 0 903.3 -- 78
2021-01-31 01:00:00 6.3 11 Noroeste 36 Noroeste 0 903.1 -- 78
2021-01-31 00:00:00 6.5 14 Noroeste 33 Oeste 0 903.1 -- 77